Aérodrome :
LOGIN :

S'inscrire | Disclaimer

   EN    FR    IT 

 










Légende :    VFR   VFR Marginal   IFR   IFR Intensif   IFR Très Intensif
Visi : 
Plafond : 
>= 8 km
>= 3000ft
5 à 8 km
1000 à 3000 ft
1500m à 5 km
500 à 1000 ft
800 à 1500m
200 à 500 ft
< 800m
< 200 ft
Symboles :   Orages  Brouillard  Fortes neiges  Fortes précipitations  Vent > 20 kt
SIGMETs :   Divers  Orages  Givrage  Turbulence  Onde Orograph.  Cendres Volcan.







- Altitude de l'aérodrome : 989 ft
- Code IATA : TRN


LIMF - Torino Caselle

DERNIER METAR :
  • 270350Z 28002KT 9999 BKN050 19/14 Q1020

METARs EXPIRÉS :
  • 270320Z 21001KT 9999 BKN045 19/14 Q1020
  • 270250Z VRB01KT 9999 BKN060 19/15 Q1020
  • 270220Z 19002KT 9999 BKN050 19/14 Q1019
  • 270150Z VRB01KT 9999 BKN050 19/15 Q1019
  • 270120Z VRB02KT 9999 BKN050 18/15 Q1019

TAF TAF LIMF
Valide du 27 à 00h jusqu'au 28 à 00h UTC


262300Z 2700/2724 VRB05KT CAVOK
Pas de NOTAMs connus pour ce terrain.



MET'MAP, la Météo Aéronautique d'un coup d'oeil ! - Copyright ORBIFLY Décembre 2007 - Disclaimer

ORBIFLY MET'MAP TEAM :

Programmation & Développement : Alexandra Zaïnal
Conception & Développement : Baudouin d'Aumeries
Co-Programmation & Développement : Marc-Olivier Méhu
Soutien technique & logistique : Manuel Goepfert

Contact : metmap@orbifly.com




SOURCES & CREDITS :

   NOAA